Time,TemperatureF,DewpointF,PressureIn,WindDirection,WindDirectionDegrees,WindSpeedMPH,WindSpeedGustMPH,Humidity,HourlyPrecipIn,Conditions,Clouds,dailyrainin,SoftwareType,DateUTC
2013-02-14 00:00:00,29.1,20.9,29.61,West,277,0.0,0.0,71,0.00,,,0.00,Wunderground v.1.12,2013-02-14 05:00:00,
2013-02-14 00:01:00,29.1,21.2,29.61,West,277,0.0,0.0,72,0.00,,,0.00,Wunderground v.1.12,2013-02-14 05:01:00,
2013-02-14 00:03:00,29.1,21.2,29.61,West,277,0.0,0.0,72,0.00,,,0.00,Wunderground v.1.12,2013-02-14 05:03:00,
2013-02-14 00:05:00,29.1,21.5,29.61,West,277,0.0,1.0,73,0.00,,,0.00,Wunderground v.1.12,2013-02-14 05:05:00,
2013-02-14 00:06:00,29.5,20.6,29.59,West,270,1.0,7.0,69,0.00,,,0.00,Wunderground v.1.12,2013-02-14 05:06:00,
2013-02-14 00:11:00,29.0,21.1,29.61,West,277,0.0,0.0,72,0.00,,,0.00,Wunderground v.1.12,2013-02-14 05:11:00,
2013-02-14 00:17:00,29.0,21.4,29.61,West,277,0.0,1.0,73,0.00,,,0.00,Wunderground v.1.12,2013-02-14 05:17:00,
2013-02-14 00:23:00,29.0,21.1,29.61,West,277,1.0,5.0,72,0.00,,,0.00,Wunderground v.1.12,2013-02-14 05:23:00,
2013-02-14 00:28:00,29.4,20.5,29.61,WNW,284,2.0,3.0,69,0.00,,,0.00,Wunderground v.1.12,2013-02-14 05:28:00,
2013-02-14 00:33:00,29.7,20.4,29.59,WNW,284,2.0,4.0,68,0.00,,,0.00,Wunderground v.1.12,2013-02-14 05:33:00,
2013-02-14 00:36:00,29.5,20.6,29.59,West,270,1.0,7.0,69,0.00,,,0.00,Wunderground v.1.12,2013-02-14 05:36:00,
2013-02-14 00:38:00,29.8,20.5,29.59,WNW,284,0.0,1.0,68,0.00,,,0.00,Wunderground v.1.12,2013-02-14 05:38:00,
2013-02-14 00:44:00,30.0,20.7,29.62,WNW,284,0.0,0.0,68,0.00,,,0.00,Wunderground v.1.12,2013-02-14 05:44:00,
2013-02-14 00:50:00,30.1,21.2,29.62,WNW,284,0.0,0.0,69,0.00,,,0.00,Wunderground v.1.12,2013-02-14 05:50:00,
2013-02-14 00:57:00,30.0,20.7,29.62,WNW,284,0.0,0.0,68,0.00,,,0.00,Wunderground v.1.12,2013-02-14 05:57:00,
2013-02-14 01:03:00,30.0,20.7,29.64,WNW,284,0.0,0.0,68,0.00,,,0.00,Wunderground v.1.12,2013-02-14 06:03:00,
2013-02-14 01:07:00,30.0,20.7,29.64,WNW,293,0.0,4.0,68,0.00,,,0.00,Wunderground v.1.12,2013-02-14 06:07:00,
2013-02-14 01:08:00,30.0,20.7,29.64,WNW,284,0.0,0.0,68,0.00,,,0.00,Wunderground v.1.12,2013-02-14 06:08:00,
2013-02-14 01:13:00,30.0,20.7,29.64,WNW,284,0.0,0.0,68,0.00,,,0.00,Wunderground v.1.12,2013-02-14 06:13:00,
2013-02-14 01:19:00,29.8,20.9,29.64,WNW,284,0.0,0.0,69,0.00,,,0.00,Wunderground v.1.12,2013-02-14 06:19:00,
2013-02-14 01:25:00,29.8,20.9,29.64,WNW,284,0.0,0.0,69,0.00,,,0.00,Wunderground v.1.12,2013-02-14 06:25:00,
2013-02-14 01:30:00,29.7,20.8,29.64,WNW,284,0.0,0.0,69,0.00,,,0.00,Wunderground v.1.12,2013-02-14 06:30:00,
2013-02-14 01:36:00,29.5,20.9,29.64,WNW,284,0.0,0.0,70,0.00,,,0.00,Wunderground v.1.12,2013-02-14 06:36:00,
2013-02-14 01:37:00,29.7,20.8,29.64,WNW,293,0.0,1.0,69,0.00,,,0.00,Wunderground v.1.12,2013-02-14 06:37:00,
2013-02-14 01:43:00,29.4,21.5,29.64,WNW,284,0.0,0.0,72,0.00,,,0.00,Wunderground v.1.12,2013-02-14 06:43:00,
2013-02-14 01:48:00,29.4,21.8,29.64,WNW,284,0.0,0.0,73,0.00,,,0.00,Wunderground v.1.12,2013-02-14 06:48:00,
2013-02-14 01:54:00,29.3,21.4,29.64,WNW,284,0.0,0.0,72,0.00,,,0.00,Wunderground v.1.12,2013-02-14 06:54:00,
2013-02-14 01:59:00,29.4,20.8,29.63,WNW,284,0.0,0.0,70,0.00,,,0.00,Wunderground v.1.12,2013-02-14 06:59:00,
2013-02-14 02:05:00,29.7,21.1,29.63,WNW,284,0.0,0.0,70,0.00,,,0.00,Wunderground v.1.12,2013-02-14 07:05:00,
2013-02-14 02:08:00,29.5,20.9,29.63,WNW,293,0.0,3.0,70,0.00,,,0.00,Wunderground v.1.12,2013-02-14 07:08:00,
2013-02-14 02:10:00,30.0,21.1,29.63,WNW,284,0.0,1.0,69,0.00,,,0.00,Wunderground v.1.12,2013-02-14 07:10:00,
2013-02-14 02:15:00,30.3,21.0,29.63,WNW,284,1.0,1.0,68,0.00,,,0.00,Wunderground v.1.12,2013-02-14 07:15:00,
2013-02-14 02:21:00,30.4,21.1,29.63,WNW,284,1.0,1.0,68,0.00,,,0.00,Wunderground v.1.12,2013-02-14 07:21:00,
2013-02-14 02:27:00,30.6,20.9,29.63,WNW,284,1.0,2.0,67,0.00,,,0.00,Wunderground v.1.12,2013-02-14 07:27:00,
2013-02-14 02:33:00,30.9,21.2,29.62,WNW,284,1.0,3.0,67,0.00,,,0.00,Wunderground v.1.12,2013-02-14 07:33:00,
2013-02-14 02:37:00,30.7,21.0,29.62,WNW,293,1.0,4.0,67,0.00,,,0.00,Wunderground v.1.12,2013-02-14 07:37:00,
2013-02-14 02:38:00,31.0,21.0,29.62,WNW,284,1.0,2.0,66,0.00,,,0.00,Wunderground v.1.12,2013-02-14 07:38:00,
2013-02-14 02:43:00,31.0,21.3,29.62,WNW,284,1.0,4.0,67,0.00,,,0.00,Wunderground v.1.12,2013-02-14 07:43:00,
2013-02-14 02:49:00,31.0,21.3,29.63,WNW,284,1.0,1.0,67,0.00,,,0.00,Wunderground v.1.12,2013-02-14 07:49:00,
2013-02-14 02:56:00,31.0,21.0,29.63,WNW,284,1.0,3.0,66,0.00,,,0.00,Wunderground v.1.12,2013-02-14 07:56:00,
2013-02-14 03:01:00,31.0,21.3,29.63,WNW,284,1.0,2.0,67,0.00,,,0.00,Wunderground v.1.12,2013-02-14 08:01:00,
2013-02-14 03:06:00,31.0,21.3,29.63,WNW,284,1.0,1.0,67,0.00,,,0.00,Wunderground v.1.12,2013-02-14 08:06:00,
2013-02-14 03:13:00,31.0,21.7,29.63,WNW,285,2.0,3.0,68,0.00,,,0.00,Wunderground v.1.12,2013-02-14 08:13:00,
2013-02-14 03:18:00,31.2,21.5,29.64,WNW,285,2.0,3.0,67,0.00,,,0.00,Wunderground v.1.12,2013-02-14 08:18:00,
2013-02-14 03:23:00,31.2,21.5,29.64,WNW,285,1.0,2.0,67,0.00,,,0.00,Wunderground v.1.12,2013-02-14 08:23:00,
2013-02-14 03:29:00,31.2,21.5,29.65,WNW,286,1.0,5.0,67,0.00,,,0.00,Wunderground v.1.12,2013-02-14 08:29:00,
2013-02-14 03:34:00,31.2,21.5,29.65,WNW,286,1.0,1.0,67,0.00,,,0.00,Wunderground v.1.12,2013-02-14 08:34:00,
2013-02-14 03:38:00,31.2,21.5,29.65,WNW,293,1.0,6.0,67,0.00,,,0.00,Wunderground v.1.12,2013-02-14 08:38:00,
2013-02-14 03:39:00,31.2,21.5,29.65,WNW,287,1.0,1.0,67,0.00,,,0.00,Wunderground v.1.12,2013-02-14 08:39:00,
2013-02-14 03:45:00,31.2,21.5,29.65,WNW,287,1.0,1.0,67,0.00,,,0.00,Wunderground v.1.12,2013-02-14 08:45:00,
2013-02-14 03:50:00,31.3,21.6,29.65,WNW,288,2.0,2.0,67,0.00,,,0.00,Wunderground v.1.12,2013-02-14 08:50:00,
2013-02-14 03:55:00,31.3,21.6,29.65,WNW,296,2.0,3.0,67,0.00,,,0.00,Wunderground v.1.12,2013-02-14 08:55:00,
2013-02-14 04:01:00,31.3,21.6,29.65,WNW,296,2.0,2.0,67,0.00,,,0.00,Wunderground v.1.12,2013-02-14 09:01:00,
2013-02-14 04:05:00,31.3,21.6,29.65,WNW,293,1.0,9.0,67,0.00,,,0.00,Wunderground v.1.12,2013-02-14 09:05:00,
2013-02-14 04:06:00,31.3,21.6,29.65,WNW,297,2.0,5.0,67,0.00,,,0.00,Wunderground v.1.12,2013-02-14 09:06:00,
2013-02-14 04:13:00,31.3,21.6,29.65,WNW,297,2.0,3.0,67,0.00,,,0.00,Wunderground v.1.12,2013-02-14 09:13:00,
2013-02-14 04:18:00,31.3,21.6,29.66,WNW,297,1.0,2.0,67,0.00,,,0.00,Wunderground v.1.12,2013-02-14 09:18:00,
2013-02-14 04:23:00,31.5,21.8,29.66,WNW,298,2.0,2.0,67,0.00,,,0.00,Wunderground v.1.12,2013-02-14 09:23:00,
2013-02-14 04:28:00,31.5,21.8,29.66,WNW,298,1.0,2.0,67,0.00,,,0.00,Wunderground v.1.12,2013-02-14 09:28:00,
2013-02-14 04:33:00,31.3,21.6,29.67,WNW,298,1.0,2.0,67,0.00,,,0.00,Wunderground v.1.12,2013-02-14 09:33:00,
2013-02-14 04:37:00,31.5,21.8,29.67,WNW,293,1.0,6.0,67,0.00,,,0.00,Wunderground v.1.12,2013-02-14 09:37:00,
2013-02-14 04:39:00,31.3,21.6,29.67,WNW,299,1.0,1.0,67,0.00,,,0.00,Wunderground v.1.12,2013-02-14 09:39:00,
2013-02-14 04:45:00,31.5,21.8,29.67,WNW,300,1.0,3.0,67,0.00,,,0.00,Wunderground v.1.12,2013-02-14 09:45:00,
2013-02-14 04:50:00,31.6,21.9,29.67,WNW,300,1.0,3.0,67,0.00,,,0.00,Wunderground v.1.12,2013-02-14 09:50:00,
2013-02-14 04:57:00,31.6,21.5,29.67,WNW,300,2.0,5.0,66,0.00,,,0.00,Wunderground v.1.12,2013-02-14 09:57:00,
2013-02-14 05:03:00,31.6,21.5,29.68,WNW,300,1.0,2.0,66,0.00,,,0.00,Wunderground v.1.12,2013-02-14 10:03:00,
2013-02-14 05:07:00,31.6,21.5,29.67,WNW,293,1.0,6.0,66,0.00,,,0.00,Wunderground v.1.12,2013-02-14 10:07:00,
2013-02-14 05:08:00,31.6,21.5,29.68,WNW,300,1.0,3.0,66,0.00,,,0.00,Wunderground v.1.12,2013-02-14 10:08:00,
2013-02-14 05:14:00,31.6,21.5,29.68,WNW,300,1.0,2.0,66,0.00,,,0.00,Wunderground v.1.12,2013-02-14 10:14:00,
2013-02-14 05:20:00,31.6,21.5,29.68,WNW,300,1.0,3.0,66,0.00,,,0.00,Wunderground v.1.12,2013-02-14 10:20:00,
2013-02-14 05:26:00,31.8,21.7,29.68,WNW,300,1.0,2.0,66,0.00,,,0.00,Wunderground v.1.12,2013-02-14 10:26:00,
2013-02-14 05:31:00,31.6,21.2,29.68,WNW,300,1.0,1.0,65,0.00,,,0.00,Wunderground v.1.12,2013-02-14 10:31:00,
2013-02-14 05:37:00,31.6,21.2,29.68,WNW,300,1.0,3.0,65,0.00,,,0.00,Wunderground v.1.12,2013-02-14 10:37:00,
2013-02-14 05:38:00,31.8,21.4,29.67,WNW,293,1.0,5.0,65,0.00,,,0.00,Wunderground v.1.12,2013-02-14 10:38:00,
2013-02-14 05:43:00,31.5,21.4,29.68,WNW,300,1.0,1.0,66,0.00,,,0.00,Wunderground v.1.12,2013-02-14 10:43:00,
2013-02-14 05:48:00,31.5,21.1,29.67,WNW,301,1.0,1.0,65,0.00,,,0.00,Wunderground v.1.12,2013-02-14 10:48:00,
2013-02-14 05:54:00,31.5,21.1,29.67,WNW,301,1.0,2.0,65,0.00,,,0.00,Wunderground v.1.12,2013-02-14 10:54:00,
2013-02-14 06:00:00,31.2,21.2,29.68,WNW,301,1.0,1.0,66,0.00,,,0.00,Wunderground v.1.12,2013-02-14 11:00:00,
2013-02-14 06:05:00,31.0,21.0,29.68,WNW,301,1.0,1.0,66,0.00,,,0.00,Wunderground v.1.12,2013-02-14 11:05:00,
2013-02-14 06:08:00,31.2,21.2,29.68,WNW,293,1.0,7.0,66,0.00,,,0.00,Wunderground v.1.12,2013-02-14 11:08:00,
2013-02-14 06:10:00,30.7,21.0,29.68,WNW,301,1.0,2.0,67,0.00,,,0.00,Wunderground v.1.12,2013-02-14 11:10:00,
2013-02-14 06:17:00,30.6,20.9,29.68,WNW,301,1.0,1.0,67,0.00,,,0.00,Wunderground v.1.12,2013-02-14 11:17:00,
2013-02-14 06:23:00,30.6,20.9,29.68,WNW,301,1.0,1.0,67,0.00,,,0.00,Wunderground v.1.12,2013-02-14 11:23:00,
2013-02-14 06:28:00,30.4,20.7,29.68,WNW,301,0.0,1.0,67,0.00,,,0.00,Wunderground v.1.12,2013-02-14 11:28:00,
2013-02-14 06:34:00,30.1,20.8,29.69,WNW,301,0.0,1.0,68,0.00,,,0.00,Wunderground v.1.12,2013-02-14 11:34:00,
2013-02-14 06:37:00,30.4,20.7,29.69,WNW,293,1.0,4.0,67,0.00,,,0.00,Wunderground v.1.12,2013-02-14 11:37:00,
2013-02-14 06:39:00,30.0,20.7,29.69,WNW,301,0.0,0.0,68,0.00,,,0.00,Wunderground v.1.12,2013-02-14 11:39:00,
2013-02-14 06:44:00,29.7,20.8,29.70,WNW,301,0.0,1.0,69,0.00,,,0.00,Wunderground v.1.12,2013-02-14 11:44:00,
2013-02-14 06:50:00,29.5,20.2,29.70,WNW,301,1.0,2.0,68,0.00,,,0.00,Wunderground v.1.12,2013-02-14 11:50:00,
2013-02-14 06:56:00,30.0,20.4,29.70,WNW,301,2.0,5.0,67,0.00,,,0.00,Wunderground v.1.12,2013-02-14 11:56:00,
2013-02-14 07:03:00,30.3,20.6,29.71,WNW,301,2.0,3.0,67,0.00,,,0.00,Wunderground v.1.12,2013-02-14 12:03:00,
2013-02-14 07:07:00,30.1,20.5,29.71,WNW,293,1.0,6.0,67,0.00,,,0.00,Wunderground v.1.12,2013-02-14 12:07:00,
2013-02-14 07:09:00,30.3,20.6,29.71,WNW,301,1.0,1.0,67,0.00,,,0.00,Wunderground v.1.12,2013-02-14 12:09:00,
2013-02-14 07:16:00,30.4,20.7,29.71,WNW,301,1.0,3.0,67,0.00,,,0.00,Wunderground v.1.12,2013-02-14 12:16:00,
2013-02-14 07:21:00,30.6,20.6,29.71,WNW,301,1.0,1.0,66,0.00,,,0.00,Wunderground v.1.12,2013-02-14 12:21:00,
2013-02-14 07:26:00,30.6,20.6,29.71,WNW,301,1.0,2.0,66,0.00,,,0.00,Wunderground v.1.12,2013-02-14 12:26:00,
2013-02-14 07:33:00,30.4,20.7,29.72,WNW,301,1.0,1.0,67,0.00,,,0.00,Wunderground v.1.12,2013-02-14 12:33:00,
2013-02-14 07:36:00,30.4,20.4,29.72,WNW,293,1.0,4.0,66,0.00,,,0.00,Wunderground v.1.12,2013-02-14 12:36:00,
2013-02-14 07:39:00,30.4,20.4,29.72,WNW,301,1.0,2.0,66,0.00,,,0.00,Wunderground v.1.12,2013-02-14 12:39:00,
2013-02-14 07:45:00,30.3,20.3,29.74,WNW,301,1.0,1.0,66,0.00,,,0.00,Wunderground v.1.12,2013-02-14 12:45:00,
2013-02-14 07:50:00,30.3,20.3,29.74,WNW,301,0.0,0.0,66,0.00,,,0.00,Wunderground v.1.12,2013-02-14 12:50:00,
2013-02-14 07:56:00,30.6,20.6,29.74,WNW,301,0.0,1.0,66,0.00,,,0.00,Wunderground v.1.12,2013-02-14 12:56:00,
2013-02-14 08:01:00,31.0,20.6,29.74,WNW,301,1.0,2.0,65,0.00,,,0.00,Wunderground v.1.12,2013-02-14 13:01:00,
2013-02-14 08:07:00,30.9,20.5,29.74,WNW,293,1.0,5.0,65,0.00,,,0.00,Wunderground v.1.12,2013-02-14 13:07:00,
2013-02-14 08:08:00,31.5,20.7,29.74,WNW,302,2.0,3.0,64,0.00,,,0.00,Wunderground v.1.12,2013-02-14 13:08:00,
2013-02-14 08:13:00,31.8,20.6,29.74,WNW,303,2.0,7.0,63,0.00,,,0.00,Wunderground v.1.12,2013-02-14 13:13:00,
2013-02-14 08:18:00,32.2,20.6,29.74,NW,315,3.0,4.0,62,0.00,,,0.00,Wunderground v.1.12,2013-02-14 13:18:00,
2013-02-14 08:23:00,32.5,20.9,29.74,NW,315,3.0,4.0,62,0.00,,,0.00,Wunderground v.1.12,2013-02-14 13:23:00,
2013-02-14 08:29:00,33.1,21.1,29.74,NW,315,3.0,3.0,61,0.00,,,0.00,Wunderground v.1.12,2013-02-14 13:29:00,
2013-02-14 08:34:00,33.2,21.2,29.74,NW,315,3.0,5.0,61,0.00,,,0.00,Wunderground v.1.12,2013-02-14 13:34:00,
2013-02-14 08:37:00,33.1,21.1,29.74,NW,315,3.0,10.0,61,0.00,,,0.00,Wunderground v.1.12,2013-02-14 13:37:00,
2013-02-14 08:40:00,33.5,21.1,29.74,NW,315,2.0,2.0,60,0.00,,,0.00,Wunderground v.1.12,2013-02-14 13:40:00,
2013-02-14 08:45:00,33.7,21.3,29.75,NW,315,1.0,2.0,60,0.00,,,0.00,Wunderground v.1.12,2013-02-14 13:45:00,
2013-02-14 08:50:00,34.0,20.8,29.75,NW,315,1.0,3.0,58,0.00,,,0.00,Wunderground v.1.12,2013-02-14 13:50:00,
2013-02-14 08:56:00,34.3,21.0,29.75,NW,315,2.0,2.0,58,0.00,,,0.00,Wunderground v.1.12,2013-02-14 13:56:00,
2013-02-14 09:01:00,34.7,21.0,29.75,NW,316,2.0,4.0,57,0.00,,,0.00,Wunderground v.1.12,2013-02-14 14:01:00,
2013-02-14 09:08:00,35.0,20.9,29.75,NW,315,2.0,3.0,56,0.00,,,0.00,Wunderground v.1.12,2013-02-14 14:08:00,
2013-02-14 09:13:00,35.3,20.3,29.75,NW,315,1.0,2.0,54,0.00,,,0.00,Wunderground v.1.12,2013-02-14 14:13:00,
2013-02-14 09:19:00,35.5,20.0,29.76,NW,316,1.0,4.0,53,0.00,,,0.00,Wunderground v.1.12,2013-02-14 14:19:00,
2013-02-14 09:24:00,35.8,19.4,29.76,NW,319,2.0,5.0,51,0.00,,,0.00,Wunderground v.1.12,2013-02-14 14:24:00,
2013-02-14 09:29:00,35.9,19.5,29.77,NW,319,2.0,2.0,51,0.00,,,0.00,Wunderground v.1.12,2013-02-14 14:29:00,
2013-02-14 09:34:00,36.2,18.9,29.77,NW,323,2.0,3.0,49,0.00,,,0.00,Wunderground v.1.12,2013-02-14 14:34:00,
2013-02-14 09:38:00,36.0,19.6,29.77,NW,315,1.0,8.0,51,0.00,,,0.00,Wunderground v.1.12,2013-02-14 14:38:00,
2013-02-14 09:40:00,36.5,18.6,29.77,NNW,328,3.0,4.0,48,0.00,,,0.00,Wunderground v.1.12,2013-02-14 14:40:00,
2013-02-14 09:45:00,36.5,19.6,29.77,NNW,328,2.0,3.0,50,0.00,,,0.00,Wunderground v.1.12,2013-02-14 14:45:00,
2013-02-14 09:50:00,36.5,18.6,29.77,NNW,328,2.0,2.0,48,0.00,,,0.00,Wunderground v.1.12,2013-02-14 14:50:00,
2013-02-14 09:55:00,36.5,19.1,29.77,NNW,328,2.0,2.0,49,0.00,,,0.00,Wunderground v.1.12,2013-02-14 14:55:00,
2013-02-14 10:01:00,36.6,18.2,29.77,NNW,328,3.0,6.0,47,0.00,,,0.00,Wunderground v.1.12,2013-02-14 15:01:00,
2013-02-14 10:06:00,36.8,18.4,29.77,NNW,327,3.0,3.0,47,0.00,,,0.00,Wunderground v.1.12,2013-02-14 15:06:00,
2013-02-14 10:07:00,36.5,18.6,29.77,NNW,338,2.0,8.0,48,0.00,,,0.00,Wunderground v.1.12,2013-02-14 15:07:00,
2013-02-14 10:11:00,37.0,18.6,29.77,NNW,329,2.0,8.0,47,0.00,,,0.00,Wunderground v.1.12,2013-02-14 15:11:00,
2013-02-14 10:16:00,37.2,18.3,29.78,NNW,332,2.0,6.0,46,0.00,,,0.00,Wunderground v.1.12,2013-02-14 15:16:00,
2013-02-14 10:21:00,37.3,18.9,29.78,NNW,333,2.0,3.0,47,0.00,,,0.00,Wunderground v.1.12,2013-02-14 15:21:00,
2013-02-14 10:28:00,37.6,18.7,29.78,NW,325,2.0,2.0,46,0.00,,,0.00,Wunderground v.1.12,2013-02-14 15:28:00,
2013-02-14 10:33:00,37.9,18.4,29.77,NW,325,1.0,2.0,45,0.00,,,0.00,Wunderground v.1.12,2013-02-14 15:33:00,
2013-02-14 10:37:00,37.8,18.8,29.77,NNW,338,2.0,9.0,46,0.00,,,0.00,Wunderground v.1.12,2013-02-14 15:37:00,
2013-02-14 10:38:00,38.2,18.2,29.77,NW,325,1.0,2.0,44,0.00,,,0.00,Wunderground v.1.12,2013-02-14 15:38:00,
2013-02-14 10:43:00,38.5,19.0,29.77,NW,325,1.0,1.0,45,0.00,,,0.00,Wunderground v.1.12,2013-02-14 15:43:00,
2013-02-14 10:49:00,38.5,19.0,29.77,NW,325,1.0,3.0,45,0.00,,,0.00,Wunderground v.1.12,2013-02-14 15:49:00,
2013-02-14 10:55:00,38.8,18.7,29.77,NW,326,2.0,4.0,44,0.00,,,0.00,Wunderground v.1.12,2013-02-14 15:55:00,
2013-02-14 11:02:00,38.9,19.3,29.77,NNW,330,3.0,4.0,45,0.00,,,0.00,Wunderground v.1.12,2013-02-14 16:02:00,
2013-02-14 11:07:00,38.9,18.8,29.77,NW,315,2.0,11.0,44,0.00,,,0.00,Wunderground v.1.12,2013-02-14 16:07:00,
2013-02-14 11:08:00,39.3,19.2,29.77,WNW,300,2.0,7.0,44,0.00,,,0.00,Wunderground v.1.12,2013-02-14 16:08:00,
2013-02-14 11:13:00,39.5,20.4,29.77,North,355,4.0,11.0,46,0.00,,,0.00,Wunderground v.1.12,2013-02-14 16:13:00,
2013-02-14 11:18:00,39.8,20.7,29.78,NNW,335,4.0,6.0,46,0.00,,,0.00,Wunderground v.1.12,2013-02-14 16:18:00,
2013-02-14 11:23:00,39.5,18.8,29.78,West,276,5.0,10.0,43,0.00,,,0.00,Wunderground v.1.12,2013-02-14 16:23:00,
2013-02-14 11:29:00,39.9,20.3,29.78,WNW,287,6.0,7.0,45,0.00,,,0.00,Wunderground v.1.12,2013-02-14 16:29:00,
2013-02-14 11:34:00,40.1,19.9,29.78,West,269,4.0,9.0,44,0.00,,,0.00,Wunderground v.1.12,2013-02-14 16:34:00,
2013-02-14 11:36:00,39.9,18.6,29.78,NNW,338,4.0,13.0,42,0.00,,,0.00,Wunderground v.1.12,2013-02-14 16:36:00,
2013-02-14 11:39:00,39.8,18.5,29.78,WNW,288,6.0,9.0,42,0.00,,,0.00,Wunderground v.1.12,2013-02-14 16:39:00,
2013-02-14 11:45:00,39.9,20.3,29.78,WNW,289,6.0,6.0,45,0.00,,,0.00,Wunderground v.1.12,2013-02-14 16:45:00,
2013-02-14 11:51:00,40.1,19.9,29.78,NNW,333,4.0,10.0,44,0.00,,,0.00,Wunderground v.1.12,2013-02-14 16:51:00,
2013-02-14 11:58:00,39.8,19.6,29.78,West,263,5.0,6.0,44,0.00,,,0.00,Wunderground v.1.12,2013-02-14 16:58:00,
2013-02-14 12:03:00,39.5,19.4,29.78,WNW,288,6.0,11.0,44,0.00,,,0.00,Wunderground v.1.12,2013-02-14 17:03:00,
2013-02-14 12:07:00,39.6,19.5,29.78,WNW,293,5.0,14.0,44,0.00,,,0.00,Wunderground v.1.12,2013-02-14 17:07:00,
2013-02-14 12:08:00,39.8,21.2,29.78,West,260,6.0,6.0,47,0.00,,,0.00,Wunderground v.1.12,2013-02-14 17:08:00,
2013-02-14 12:14:00,40.2,21.0,29.78,WNW,288,3.0,6.0,46,0.00,,,0.00,Wunderground v.1.12,2013-02-14 17:14:00,
2013-02-14 12:19:00,40.2,20.0,29.78,NNW,331,4.0,7.0,44,0.00,,,0.00,Wunderground v.1.12,2013-02-14 17:19:00,
2013-02-14 12:24:00,40.1,21.5,29.78,NW,321,4.0,4.0,47,0.00,,,0.00,Wunderground v.1.12,2013-02-14 17:24:00,
2013-02-14 12:30:00,40.1,19.4,29.78,WNW,291,3.0,4.0,43,0.00,,,0.00,Wunderground v.1.12,2013-02-14 17:30:00,
2013-02-14 12:36:00,40.1,18.8,29.78,WNW,296,4.0,11.0,42,0.00,,,0.00,Wunderground v.1.12,2013-02-14 17:36:00,
2013-02-14 12:38:00,40.1,19.9,29.78,West,270,4.0,13.0,44,0.00,,,0.00,Wunderground v.1.12,2013-02-14 17:38:00,
2013-02-14 12:41:00,40.1,19.4,29.78,West,277,5.0,10.0,43,0.00,,,0.00,Wunderground v.1.12,2013-02-14 17:41:00,
2013-02-14 12:47:00,40.5,21.3,29.77,West,281,5.0,6.0,46,0.00,,,0.00,Wunderground v.1.12,2013-02-14 17:47:00,
2013-02-14 12:56:00,40.5,19.7,29.77,WNW,287,3.0,3.0,43,0.00,,,0.00,Wunderground v.1.12,2013-02-14 17:56:00,
2013-02-14 13:01:00,40.1,18.8,29.78,West,281,5.0,7.0,42,0.00,,,0.00,Wunderground v.1.12,2013-02-14 18:01:00,
2013-02-14 13:07:00,40.6,19.3,29.78,WNW,292,4.0,4.0,42,0.00,,,0.00,Wunderground v.1.12,2013-02-14 18:07:00,
2013-02-14 13:13:00,40.8,20.5,29.78,WNW,289,3.0,6.0,44,0.00,,,0.00,Wunderground v.1.12,2013-02-14 18:13:00,
2013-02-14 13:18:00,41.2,19.8,29.77,WNW,303,3.0,4.0,42,0.00,,,0.00,Wunderground v.1.12,2013-02-14 18:18:00,
2013-02-14 13:23:00,41.2,20.9,29.77,WNW,289,3.0,11.0,44,0.00,,,0.00,Wunderground v.1.12,2013-02-14 18:23:00,
2013-02-14 13:28:00,40.8,19.5,29.77,WNW,303,4.0,13.0,42,0.00,,,0.00,Wunderground v.1.12,2013-02-14 18:28:00,
2013-02-14 13:33:00,41.3,20.5,29.78,WNW,300,3.0,4.0,43,0.00,,,0.00,Wunderground v.1.12,2013-02-14 18:33:00,
2013-02-14 13:36:00,40.9,19.5,29.78,WNW,293,3.0,13.0,42,0.00,,,0.00,Wunderground v.1.12,2013-02-14 18:36:00,
2013-02-14 13:38:00,41.5,19.5,29.78,NW,307,2.0,5.0,41,0.00,,,0.00,Wunderground v.1.12,2013-02-14 18:38:00,
2013-02-14 13:44:00,41.3,20.5,29.78,NW,305,4.0,10.0,43,0.00,,,0.00,Wunderground v.1.12,2013-02-14 18:44:00,
2013-02-14 13:49:00,40.9,20.6,29.78,WNW,283,4.0,8.0,44,0.00,,,0.00,Wunderground v.1.12,2013-02-14 18:49:00,
2013-02-14 13:55:00,40.9,19.5,29.78,West,259,5.0,5.0,42,0.00,,,0.00,Wunderground v.1.12,2013-02-14 18:55:00,
2013-02-14 14:00:00,41.1,19.7,29.78,NNW,336,4.0,4.0,42,0.00,,,0.00,Wunderground v.1.12,2013-02-14 19:00:00,
2013-02-14 14:05:00,41.5,20.1,29.78,WNW,286,3.0,4.0,42,0.00,,,0.00,Wunderground v.1.12,2013-02-14 19:05:00,
2013-02-14 14:08:00,41.1,19.7,29.78,WNW,293,4.0,12.0,42,0.00,,,0.00,Wunderground v.1.12,2013-02-14 19:08:00,
2013-02-14 14:11:00,41.9,20.4,29.78,West,274,2.0,4.0,42,0.00,,,0.00,Wunderground v.1.12,2013-02-14 19:11:00,
2013-02-14 14:16:00,42.2,22.4,29.78,NW,315,2.0,3.0,45,0.00,,,0.00,Wunderground v.1.12,2013-02-14 19:16:00,
2013-02-14 14:23:00,41.9,20.4,29.78,WNW,290,3.0,5.0,42,0.00,,,0.00,Wunderground v.1.12,2013-02-14 19:23:00,
2013-02-14 14:28:00,41.6,19.6,29.78,West,272,4.0,7.0,41,0.00,,,0.00,Wunderground v.1.12,2013-02-14 19:28:00,
2013-02-14 14:34:00,41.3,19.9,29.78,WNW,297,6.0,12.0,42,0.00,,,0.00,Wunderground v.1.12,2013-02-14 19:34:00,
2013-02-14 14:38:00,41.5,19.5,29.78,West,270,3.0,14.0,41,0.00,,,0.00,Wunderground v.1.12,2013-02-14 19:38:00,
2013-02-14 14:39:00,41.5,20.1,29.78,WNW,294,5.0,6.0,42,0.00,,,0.00,Wunderground v.1.12,2013-02-14 19:39:00,
2013-02-14 14:45:00,41.6,20.2,29.78,WNW,293,3.0,3.0,42,0.00,,,0.00,Wunderground v.1.12,2013-02-14 19:45:00,
2013-02-14 14:50:00,42.5,20.4,29.78,WNW,293,1.0,3.0,41,0.00,,,0.00,Wunderground v.1.12,2013-02-14 19:50:00,
2013-02-14 14:55:00,42.1,20.1,29.78,WNW,299,2.0,3.0,41,0.00,,,0.00,Wunderground v.1.12,2013-02-14 19:55:00,
2013-02-14 15:01:00,42.1,20.1,29.78,WNW,299,3.0,4.0,41,0.00,,,0.00,Wunderground v.1.12,2013-02-14 20:01:00,
2013-02-14 15:06:00,41.8,19.8,29.78,WNW,300,3.0,4.0,41,0.00,,,0.00,Wunderground v.1.12,2013-02-14 20:06:00,
2013-02-14 15:07:00,42.2,20.7,29.78,WNW,293,3.0,12.0,42,0.00,,,0.00,Wunderground v.1.12,2013-02-14 20:07:00,
2013-02-14 15:11:00,42.1,20.1,29.78,WNW,300,2.0,3.0,41,0.00,,,0.00,Wunderground v.1.12,2013-02-14 20:11:00,
2013-02-14 15:18:00,42.1,20.1,29.79,West,281,2.0,6.0,41,0.00,,,0.00,Wunderground v.1.12,2013-02-14 20:18:00,
2013-02-14 15:23:00,41.9,20.4,29.79,WSW,251,3.0,7.0,42,0.00,,,0.00,Wunderground v.1.12,2013-02-14 20:23:00,
2013-02-14 15:28:00,42.2,21.8,29.79,WSW,251,2.0,3.0,44,0.00,,,0.00,Wunderground v.1.12,2013-02-14 20:28:00,
2013-02-14 15:33:00,42.5,20.4,29.80,WSW,251,1.0,3.0,41,0.00,,,0.00,Wunderground v.1.12,2013-02-14 20:33:00,
2013-02-14 15:37:00,42.3,20.8,29.80,WNW,293,2.0,10.0,42,0.00,,,0.00,Wunderground v.1.12,2013-02-14 20:37:00,
2013-02-14 15:38:00,42.1,20.1,29.80,WSW,240,3.0,11.0,41,0.00,,,0.00,Wunderground v.1.12,2013-02-14 20:38:00,
2013-02-14 15:43:00,41.9,20.4,29.80,WSW,241,4.0,5.0,42,0.00,,,0.00,Wunderground v.1.12,2013-02-14 20:43:00,
2013-02-14 15:49:00,42.5,19.8,29.81,WSW,241,2.0,2.0,40,0.00,,,0.00,Wunderground v.1.12,2013-02-14 20:49:00,
2013-02-14 15:54:00,42.5,20.4,29.81,WSW,241,1.0,1.0,41,0.00,,,0.00,Wunderground v.1.12,2013-02-14 20:54:00,
2013-02-14 16:00:00,42.1,20.1,29.81,WSW,240,2.0,4.0,41,0.00,,,0.00,Wunderground v.1.12,2013-02-14 21:00:00,
2013-02-14 16:06:00,42.2,20.2,29.81,WSW,240,2.0,2.0,41,0.00,,,0.00,Wunderground v.1.12,2013-02-14 21:06:00,
2013-02-14 16:11:00,41.9,19.3,29.81,WSW,240,2.0,5.0,40,0.00,,,0.00,Wunderground v.1.12,2013-02-14 21:11:00,
2013-02-14 16:18:00,41.9,19.9,29.81,WSW,240,4.0,4.0,41,0.00,,,0.00,Wunderground v.1.12,2013-02-14 21:18:00,
2013-02-14 16:23:00,41.8,19.8,29.81,WSW,240,3.0,3.0,41,0.00,,,0.00,Wunderground v.1.12,2013-02-14 21:23:00,
2013-02-14 16:28:00,41.8,19.8,29.81,WSW,240,2.0,4.0,41,0.00,,,0.00,Wunderground v.1.12,2013-02-14 21:28:00,
2013-02-14 16:33:00,42.2,19.6,29.81,WSW,240,1.0,2.0,40,0.00,,,0.00,Wunderground v.1.12,2013-02-14 21:33:00,
2013-02-14 16:37:00,41.9,19.9,29.81,WSW,248,2.0,9.0,41,0.00,,,0.00,Wunderground v.1.12,2013-02-14 21:37:00,
2013-02-14 16:38:00,42.3,20.2,29.81,WSW,240,0.0,1.0,41,0.00,,,0.00,Wunderground v.1.12,2013-02-14 21:38:00,
2013-02-14 16:43:00,42.3,20.2,29.81,WSW,240,0.0,1.0,41,0.00,,,0.00,Wunderground v.1.12,2013-02-14 21:43:00,
2013-02-14 16:49:00,41.9,19.9,29.83,WSW,240,0.0,0.0,41,0.00,,,0.00,Wunderground v.1.12,2013-02-14 21:49:00,
2013-02-14 16:55:00,41.9,19.9,29.83,WSW,240,0.0,0.0,41,0.00,,,0.00,Wunderground v.1.12,2013-02-14 21:55:00,
2013-02-14 17:01:00,41.8,20.9,29.83,WSW,240,0.0,0.0,43,0.00,,,0.00,Wunderground v.1.12,2013-02-14 22:01:00,
2013-02-14 17:06:00,40.6,20.4,29.83,WSW,240,0.0,0.0,44,0.00,,,0.00,Wunderground v.1.12,2013-02-14 22:06:00,
2013-02-14 17:07:00,41.9,21.0,29.83,WSW,248,0.0,2.0,43,0.00,,,0.00,Wunderground v.1.12,2013-02-14 22:07:00,
2013-02-14 17:11:00,39.2,21.6,29.83,WSW,239,0.0,3.0,49,0.00,,,0.00,Wunderground v.1.12,2013-02-14 22:11:00,
2013-02-14 17:16:00,38.2,23.9,29.84,SSE,159,1.0,1.0,56,0.00,,,0.00,Wunderground v.1.12,2013-02-14 22:16:00,
2013-02-14 17:23:00,37.5,24.5,29.84,SSE,154,1.0,2.0,59,0.00,,,0.00,Wunderground v.1.12,2013-02-14 22:23:00,
2013-02-14 17:28:00,37.2,25.0,29.84,SSE,153,0.0,1.0,61,0.00,,,0.00,Wunderground v.1.12,2013-02-14 22:28:00,
2013-02-14 17:33:00,36.9,25.5,29.85,SSE,153,0.0,0.0,63,0.00,,,0.00,Wunderground v.1.12,2013-02-14 22:33:00,
2013-02-14 17:37:00,37.0,25.2,29.85,SSE,158,0.0,4.0,62,0.00,,,0.00,Wunderground v.1.12,2013-02-14 22:37:00,
2013-02-14 17:38:00,36.6,25.6,29.85,SSE,153,0.0,0.0,64,0.00,,,0.00,Wunderground v.1.12,2013-02-14 22:38:00,
2013-02-14 17:44:00,36.3,25.3,29.85,SSE,153,0.0,0.0,64,0.00,,,0.00,Wunderground v.1.12,2013-02-14 22:44:00,
2013-02-14 17:49:00,36.0,25.7,29.85,SSE,153,0.0,0.0,66,0.00,,,0.00,Wunderground v.1.12,2013-02-14 22:49:00,
2013-02-14 17:54:00,35.9,26.0,29.85,SSE,153,0.0,0.0,67,0.00,,,0.00,Wunderground v.1.12,2013-02-14 22:54:00,
2013-02-14 18:00:00,35.6,25.7,29.86,SSE,153,0.0,0.0,67,0.00,,,0.00,Wunderground v.1.12,2013-02-14 23:00:00,
2013-02-14 18:05:00,35.3,25.4,29.86,SSE,153,0.0,0.0,67,0.00,,,0.00,Wunderground v.1.12,2013-02-14 23:05:00,
2013-02-14 18:06:00,35.6,25.7,29.86,SSE,158,0.0,3.0,67,0.00,,,0.00,Wunderground v.1.12,2013-02-14 23:06:00,
2013-02-14 18:10:00,35.2,25.7,29.86,SSE,153,0.0,0.0,68,0.00,,,0.00,Wunderground v.1.12,2013-02-14 23:10:00,
2013-02-14 18:16:00,35.0,25.9,29.86,SSE,153,0.0,0.0,69,0.00,,,0.00,Wunderground v.1.12,2013-02-14 23:16:00,
2013-02-14 18:23:00,34.6,25.8,29.86,SSE,153,0.0,0.0,70,0.00,,,0.00,Wunderground v.1.12,2013-02-14 23:23:00,
2013-02-14 18:28:00,34.1,25.3,29.86,SSE,153,0.0,0.0,70,0.00,,,0.00,Wunderground v.1.12,2013-02-14 23:28:00,
2013-02-14 18:33:00,33.8,25.4,29.87,SSE,153,0.0,0.0,71,0.00,,,0.00,Wunderground v.1.12,2013-02-14 23:33:00,
2013-02-14 18:35:00,34.0,25.6,29.87,SSE,158,0.0,1.0,71,0.00,,,0.00,Wunderground v.1.12,2013-02-14 23:35:00,
2013-02-14 18:38:00,33.5,25.4,29.87,SSE,153,0.0,0.0,72,0.00,,,0.00,Wunderground v.1.12,2013-02-14 23:38:00,
2013-02-14 18:44:00,33.4,25.3,29.87,SSE,153,0.0,0.0,72,0.00,,,0.00,Wunderground v.1.12,2013-02-14 23:44:00,
2013-02-14 18:50:00,33.2,25.5,29.87,SSE,153,0.0,0.0,73,0.00,,,0.00,Wunderground v.1.12,2013-02-14 23:50:00,
2013-02-14 18:56:00,33.1,25.4,29.87,SSE,153,0.0,1.0,73,0.00,,,0.00,Wunderground v.1.12,2013-02-14 23:56:00,
2013-02-14 19:03:00,32.9,25.2,29.88,SSE,153,0.0,0.0,73,0.00,,,0.00,Wunderground v.1.12,2013-02-15 00:03:00,
2013-02-14 19:07:00,33.1,25.4,29.88,SSE,158,0.0,2.0,73,0.00,,,0.00,Wunderground v.1.12,2013-02-15 00:07:00,
2013-02-14 19:09:00,32.9,25.2,29.88,SSE,153,0.0,0.0,73,0.00,,,0.00,Wunderground v.1.12,2013-02-15 00:09:00,
2013-02-14 19:14:00,32.9,25.2,29.88,SSE,153,0.0,0.0,73,0.00,,,0.00,Wunderground v.1.12,2013-02-15 00:14:00,
2013-02-14 19:19:00,32.8,25.1,29.88,SSE,153,0.0,0.0,73,0.00,,,0.00,Wunderground v.1.12,2013-02-15 00:19:00,
2013-02-14 19:24:00,32.7,25.3,29.88,SSE,153,0.0,0.0,74,0.00,,,0.00,Wunderground v.1.12,2013-02-15 00:24:00,
2013-02-14 19:30:00,32.5,25.1,29.88,SSE,153,0.0,0.0,74,0.00,,,0.00,Wunderground v.1.12,2013-02-15 00:30:00,
2013-02-14 19:36:00,32.4,25.4,29.88,SSE,153,0.0,1.0,75,0.00,,,0.00,Wunderground v.1.12,2013-02-15 00:36:00,
2013-02-14 19:43:00,32.1,25.4,29.88,SSE,153,0.0,0.0,76,0.00,,,0.00,Wunderground v.1.12,2013-02-15 00:43:00,
2013-02-14 19:48:00,31.9,25.2,29.88,SSE,153,0.0,0.0,76,0.00,,,0.00,Wunderground v.1.12,2013-02-15 00:48:00,
2013-02-14 19:53:00,31.8,25.1,29.88,SSE,153,0.0,0.0,76,0.00,,,0.00,Wunderground v.1.12,2013-02-15 00:53:00,
2013-02-14 19:59:00,31.6,24.9,29.88,SSE,153,0.0,0.0,76,0.00,,,0.00,Wunderground v.1.12,2013-02-15 00:59:00,
2013-02-14 20:04:00,31.3,24.9,29.88,SSE,153,0.0,0.0,77,0.00,,,0.00,Wunderground v.1.12,2013-02-15 01:04:00,
2013-02-14 20:08:00,31.6,25.2,29.88,SSE,158,0.0,1.0,77,0.00,,,0.00,Wunderground v.1.12,2013-02-15 01:08:00,
2013-02-14 20:10:00,31.2,25.1,29.88,SSE,153,0.0,0.0,78,0.00,,,0.00,Wunderground v.1.12,2013-02-15 01:10:00,
2013-02-14 20:16:00,31.0,25.2,29.88,SSE,153,0.0,0.0,79,0.00,,,0.00,Wunderground v.1.12,2013-02-15 01:16:00,
2013-02-14 20:21:00,30.6,24.9,29.88,SSE,153,0.0,0.0,79,0.00,,,0.00,Wunderground v.1.12,2013-02-15 01:21:00,
2013-02-14 20:26:00,30.3,24.9,29.88,SSE,153,0.0,0.0,80,0.00,,,0.00,Wunderground v.1.12,2013-02-15 01:26:00,
2013-02-14 20:31:00,30.0,24.9,29.88,SSE,153,0.0,0.0,81,0.00,,,0.00,Wunderground v.1.12,2013-02-15 01:31:00,
2013-02-14 20:36:00,29.8,24.7,29.88,SSE,153,0.0,0.0,81,0.00,,,0.00,Wunderground v.1.12,2013-02-15 01:36:00,
2013-02-14 20:37:00,30.1,24.7,29.88,SSE,158,0.0,1.0,80,0.00,,,0.00,Wunderground v.1.12,2013-02-15 01:37:00,
2013-02-14 20:43:00,29.7,24.9,29.88,SSE,153,0.0,0.0,82,0.00,,,0.00,Wunderground v.1.12,2013-02-15 01:43:00,
2013-02-14 20:48:00,29.7,24.9,29.88,SSE,153,0.0,0.0,82,0.00,,,0.00,Wunderground v.1.12,2013-02-15 01:48:00,
2013-02-14 20:54:00,29.5,24.7,29.88,SSE,153,0.0,0.0,82,0.00,,,0.00,Wunderground v.1.12,2013-02-15 01:54:00,
2013-02-14 21:00:00,29.5,25.0,29.88,SSE,153,0.0,0.0,83,0.00,,,0.00,Wunderground v.1.12,2013-02-15 02:00:00,
2013-02-14 21:05:00,29.5,25.0,29.88,SSE,153,0.0,0.0,83,0.00,,,0.00,Wunderground v.1.12,2013-02-15 02:05:00,
2013-02-14 21:06:00,29.5,25.0,29.88,N/A,-737280,0.0,0.0,83,0.00,,,0.00,Wunderground v.1.12,2013-02-15 02:06:00,
2013-02-14 21:11:00,29.5,25.0,29.88,SSE,153,0.0,0.0,83,0.00,,,0.00,Wunderground v.1.12,2013-02-15 02:11:00,
2013-02-14 21:18:00,29.3,24.8,29.88,SSE,153,0.0,0.0,83,0.00,,,0.00,Wunderground v.1.12,2013-02-15 02:18:00,
2013-02-14 21:23:00,29.0,24.8,29.88,SSE,153,0.0,0.0,84,0.00,,,0.00,Wunderground v.1.12,2013-02-15 02:23:00,
2013-02-14 21:28:00,28.8,24.6,29.88,SSE,153,0.0,0.0,84,0.00,,,0.00,Wunderground v.1.12,2013-02-15 02:28:00,
2013-02-14 21:34:00,28.5,24.6,29.87,SSE,153,0.0,0.0,85,0.00,,,0.00,Wunderground v.1.12,2013-02-15 02:34:00,
2013-02-14 21:36:00,28.7,24.8,29.87,SSE,158,0.0,1.0,85,0.00,,,0.00,Wunderground v.1.12,2013-02-15 02:36:00,
2013-02-14 21:39:00,28.7,25.0,29.87,SSE,153,0.0,0.0,86,0.00,,,0.00,Wunderground v.1.12,2013-02-15 02:39:00,
2013-02-14 21:45:00,28.5,24.8,29.86,SSE,153,0.0,0.0,86,0.00,,,0.00,Wunderground v.1.12,2013-02-15 02:45:00,
2013-02-14 21:50:00,28.5,25.1,29.86,SSE,153,0.0,0.0,87,0.00,,,0.00,Wunderground v.1.12,2013-02-15 02:50:00,
2013-02-14 21:56:00,28.5,25.1,29.86,SSE,153,0.0,0.0,87,0.00,,,0.00,Wunderground v.1.12,2013-02-15 02:56:00,
2013-02-14 22:01:00,28.7,25.3,29.87,SSE,153,0.0,0.0,87,0.00,,,0.00,Wunderground v.1.12,2013-02-15 03:01:00,
2013-02-14 22:06:00,28.7,25.3,29.87,SSE,153,0.0,0.0,87,0.00,,,0.00,Wunderground v.1.12,2013-02-15 03:06:00,
2013-02-14 22:11:00,28.8,25.4,29.87,SSE,153,0.0,0.0,87,0.00,,,0.00,Wunderground v.1.12,2013-02-15 03:11:00,
2013-02-14 22:16:00,29.1,25.7,29.86,SSE,153,0.0,0.0,87,0.00,,,0.00,Wunderground v.1.12,2013-02-15 03:16:00,
2013-02-14 22:23:00,29.3,25.9,29.86,SSE,153,0.0,0.0,87,0.00,,,0.00,Wunderground v.1.12,2013-02-15 03:23:00,
2013-02-14 22:28:00,29.3,25.9,29.86,SSE,153,0.0,0.0,87,0.00,,,0.00,Wunderground v.1.12,2013-02-15 03:28:00,
2013-02-14 22:33:00,29.3,25.9,29.86,SSE,153,0.0,1.0,87,0.00,,,0.00,Wunderground v.1.12,2013-02-15 03:33:00,
2013-02-14 22:36:00,29.3,25.9,29.86,SSE,158,0.0,1.0,87,0.00,,,0.00,Wunderground v.1.12,2013-02-15 03:36:00,
2013-02-14 22:39:00,29.1,25.4,29.86,SSE,153,0.0,0.0,86,0.00,,,0.00,Wunderground v.1.12,2013-02-15 03:39:00,
2013-02-14 22:44:00,28.7,25.0,29.88,SSE,153,0.0,0.0,86,0.00,,,0.00,Wunderground v.1.12,2013-02-15 03:44:00,
2013-02-14 22:49:00,28.5,24.8,29.88,SSE,153,0.0,0.0,86,0.00,,,0.00,Wunderground v.1.12,2013-02-15 03:49:00,
2013-02-14 22:55:00,28.4,25.0,29.88,SSE,153,0.0,0.0,87,0.00,,,0.00,Wunderground v.1.12,2013-02-15 03:55:00,
2013-02-14 23:00:00,28.5,25.1,29.88,SSE,153,0.0,0.0,87,0.00,,,0.00,Wunderground v.1.12,2013-02-15 04:00:00,
2013-02-14 23:06:00,28.7,25.0,29.88,SSE,153,0.0,0.0,86,0.00,,,0.00,Wunderground v.1.12,2013-02-15 04:06:00,
2013-02-14 23:08:00,28.5,25.1,29.88,SSE,158,0.0,1.0,87,0.00,,,0.00,Wunderground v.1.12,2013-02-15 04:08:00,
2013-02-14 23:11:00,28.8,25.1,29.88,SSE,153,0.0,0.0,86,0.00,,,0.00,Wunderground v.1.12,2013-02-15 04:11:00,
2013-02-14 23:16:00,29.0,25.3,29.88,SSE,153,0.0,0.0,86,0.00,,,0.00,Wunderground v.1.12,2013-02-15 04:16:00,
2013-02-14 23:23:00,29.3,25.4,29.88,SSE,153,0.0,0.0,85,0.00,,,0.00,Wunderground v.1.12,2013-02-15 04:23:00,
2013-02-14 23:28:00,29.4,25.4,29.88,SSE,153,0.0,0.0,85,0.00,,,0.00,Wunderground v.1.12,2013-02-15 04:28:00,
2013-02-14 23:33:00,29.4,25.2,29.88,SSE,153,0.0,0.0,84,0.00,,,0.00,Wunderground v.1.12,2013-02-15 04:33:00,
2013-02-14 23:37:00,29.4,25.4,29.88,SSE,158,0.0,1.0,85,0.00,,,0.00,Wunderground v.1.12,2013-02-15 04:37:00,
2013-02-14 23:39:00,29.4,24.9,29.88,SSE,153,0.0,0.0,83,0.00,,,0.00,Wunderground v.1.12,2013-02-15 04:39:00,
2013-02-14 23:44:00,29.3,24.8,29.88,SSE,153,0.0,0.0,83,0.00,,,0.00,Wunderground v.1.12,2013-02-15 04:44:00,
2013-02-14 23:49:00,28.8,24.3,29.88,SSE,153,0.0,0.0,83,0.00,,,0.00,Wunderground v.1.12,2013-02-15 04:49:00,
2013-02-14 23:54:00,28.4,23.9,29.88,SSE,153,0.0,0.0,83,0.00,,,0.00,Wunderground v.1.12,2013-02-15 04:54:00,